Weather observations for the past three days for
Faribault, Faribault Municipal Airport
Metric (Imperial)
Date Time (cdt) Wind (kph) Vis. (km) Weather Sky Cond. Temperature (ºC) Relative Humidity Wind Chill (°C) Heat Index (°C) Pressure Precipitation (cm)
Air Dwpt 6 hour altimeter (cm) sea level (mb) 1 hr 3 hr 6 hr
Max. Min.
02 13:15 SW 7 16.09 Fair CLR 14 -3 31% 76.28 0.0
02 12:55 SW 7 16.09 Fair CLR 14 -3 31% 76.3 0.0
02 12:35 W 11 16.09 Fair CLR 14 -2 33% 76.33 0.0
02 12:15 W 9 16.09 Fair CLR 14 -3 31% 76.35 0.0
02 11:55 W 13 16.09 Fair CLR 13 -4 31% 76.35 0.0
02 11:35 W 19 G 28 16.09 Fair CLR 13 -4 31% 76.38 0.0
02 11:15 W 20 G 30 16.09 Fair CLR 13 -3 33% 76.4 0.0
02 10:55 W 19 G 28 16.09 Fair CLR 13 -3 33% 76.43 0.0
02 10:35 SW 17 G 26 16.09 Fair CLR 12 -3 35% 76.43 0.0
02 10:15 W 15 G 26 16.09 Fair CLR 12 -3 35% 76.43 0.0
02 09:55 W 13 16.09 Fair CLR 12 -2 38% 76.43 0.0
02 09:35 W 11 16.09 Fair CLR 11 -1 44% 76.45 0.0
02 09:15 W 11 16.09 Fair CLR 10 -2 43% 9 76.45 0.0
02 08:55 W 13 16.09 Fair CLR 9 -1 50% 7 76.45 0.0
02 08:35 W 7 16.09 Fair CLR 8 -1 53% 7 76.45 0.0
02 08:15 W 13 16.09 Fair CLR 7 -1 57% 5 76.45 0.0
02 07:55 SW 7 16.09 Fair CLR 7 0 61% 6 76.45 0.0
02 07:35 SW 7 16.09 Fair CLR 5 0 70% 4 76.45 0.0
02 07:15 SW 6 16.09 Fair CLR 4 -1 70% 76.45 0.0
02 06:55 SW 7 16.09 Fair CLR 2 -1 81% 0 76.45 0.0
02 06:35 Calm 16.09 Fair CLR 2 -2 75% 76.43 0.0
02 06:15 S 6 16.09 Fair CLR 1 -2 81% 76.43 0.0
02 05:55 Calm 16.09 Fair CLR 0 -2 87% 76.43 0.0
02 05:35 Calm 16.09 Fair CLR 1 -1 87% 76.43 0.0
02 05:15 SW 6 16.09 Fair CLR 2 -1 81% 76.43 0.0
02 04:55 SW 6 16.09 Fair CLR 1 -1 87% 76.43 0.0
02 04:35 SW 7 16.09 Fair CLR 0 -2 87% -2 76.43 0.0
02 04:15 SW 6 16.09 Fair CLR 1 -2 81% 76.43 0.0
02 03:55 SW 6 16.09 Partly Cloudy SCT085 1 -1 87% 76.43 0.0
02 03:35 Calm 16.09 Partly Cloudy SCT085 1 -1 87% 76.43 0.0
02 03:15 Calm 16.09 Partly Cloudy SCT085 0 -2 87% 76.43 0.0
02 02:55 Calm 16.09 Fair CLR 2 -2 75% 76.43 0.0
02 02:35 Calm 16.09 Fair CLR 2 -2 75% 76.43 0.0
02 02:15 Calm 16.09 Partly Cloudy SCT085 2 -2 75% 76.45 0.0
02 01:55 SW 6 16.09 Mostly Cloudy BKN085 2 -2 75% 76.45 0.0
02 01:35 Calm 16.09 Mostly Cloudy BKN085 3 -3 65% 76.45 0.0
02 01:15 Calm 16.09 Partly Cloudy SCT085 4 -3 61% 76.45 0.0
02 00:55 SW 6 16.09 Partly Cloudy SCT085 4 -3 61% 76.45 0.0
02 00:35 Calm 16.09 Fair CLR 2 -2 75% 76.45 0.0
02 00:15 SW 6 16.09 Fair CLR 3 -3 65% 76.45 0.0
01 23:55 Calm 16.09 Fair CLR 2 -2 75% 76.45 0.0
01 23:35 Calm 16.09 Fair CLR 2 -2 75% 76.45 0.0
01 23:15 Calm 16.09 Fair CLR 2 -2 75% 76.45 0.0
01 22:55 Calm 16.09 Fair CLR 3 -1 75% 76.45 0.0
01 22:35 Calm 16.09 Fair CLR 3 -2 70% 76.45 0.0
01 22:15 Calm 16.09 Fair CLR 4 -3 61% 76.45 0.0
01 21:55 Calm 16.09 Fair CLR 5 -3 57% 76.45 0.0
01 21:35 Calm 16.09 Fair CLR 6 -3 53% 76.45 0.0
01 21:15 W 6 16.09 Partly Cloudy SCT085 7 -3 49% 76.45 0.0
01 20:55 W 6 16.09 Overcast OVC085 8 -4 43% 76.43 0.0
01 20:35 NW 6 16.09 Overcast OVC085 9 -5 37% 76.43 0.0
01 20:15 NW 6 16.09 Overcast OVC085 9 -6 34% 76.4 0.0
01 19:55 NW 7 16.09 Mostly Cloudy BKN085 10 -6 32% 9 76.4 0.0
01 19:35 NW 7 16.09 Partly Cloudy SCT075 11 -7 28% 76.4 0.0
01 19:15 N 7 16.09 Partly Cloudy SCT075 11 -7 28% 76.38 0.0
01 18:55 N 9 16.09 Partly Cloudy SCT075 11 -7 28% 76.38 0.0
01 18:35 N 13 16.09 Fair CLR 11 -6 30% 76.38 0.0
01 18:15 N 11 16.09 Partly Cloudy SCT075 11 -6 30% 76.38 0.0
01 17:55 N 11 16.09 Partly Cloudy SCT075 11 -6 30% 76.38 0.0
01 17:35 N 9 16.09 Fair CLR 10 -7 30% 9 76.38 0.0
01 17:15 N 17 16.09 Partly Cloudy SCT075 11 -7 28% 76.38 0.0
01 16:55 N 9 16.09 Partly Cloudy SCT075 11 -7 28% 76.38 0.0
01 16:35 N 13 16.09 Partly Cloudy SCT075 11 -6 30% 76.38 0.0
01 16:15 N 15 16.09 Mostly Cloudy BKN075 11 -7 28% 76.38 0.0
01 15:55 N 19 G 26 16.09 Mostly Cloudy BKN075 11 -6 30% 76.38 0.0
01 15:35 N 9 G 19 16.09 Partly Cloudy SCT065 11 -7 28% 76.4 0.0
01 15:15 N 17 16.09 Partly Cloudy SCT065 12 -6 28% 76.4 0.0
01 14:55 NW 15 16.09 Partly Cloudy SCT065 11 -7 28% 76.4 0.0
01 14:35 NE 15 16.09 Mostly Cloudy BKN065 11 -6 30% 76.4 0.0
01 14:15 NW 15 16.09 Partly Cloudy SCT065 11 -6 30% 76.4 0.0
01 13:55 NE 13 16.09 Partly Cloudy SCT065 10 -6 32% 8 76.4 0.0
01 13:35 NW 11 16.09 Partly Cloudy SCT065 11 -6 30% 76.4 0.0
01 13:15 N 17 16.09 Mostly Cloudy BKN065 10 -6 32% 8 76.4 0.0
01 12:55 NW 15 16.09 Mostly Cloudy BKN055 9 -6 34% 7 76.43 0.0
01 12:35 NW 17 16.09 Mostly Cloudy BKN055 9 -5 37% 7 76.43 0.0
01 12:15 N 13 16.09 Mostly Cloudy BKN055 9 -5 37% 7 76.43 0.0
01 11:55 N 19 16.09 Mostly Cloudy BKN055 8 -6 37% 5 76.43 0.0
01 11:35 N 19 G 26 16.09 Partly Cloudy SCT070 8 -5 40% 5 76.4 0.0
01 11:15 NE 19 G 28 16.09 Fair CLR 9 -5 37% 7 76.4 0.0
01 10:55 NE 15 16.09 Fair CLR 8 -5 40% 6 76.4 0.0
01 10:35 N 20 G 26 16.09 Fair CLR 8 -6 37% 5 76.43 0.0
01 10:15 NE 11 16.09 Fair CLR 8 0 0% 6 76.4 0.0
01 09:55 N 17 16.09 Fair CLR 8 -4 43% 6 76.4 0.0
01 09:35 NE 11 16.09 Partly Cloudy SCT070 7 -4 46% 5 76.4 0.0
01 09:15 NE 9 16.09 Overcast OVC070 6 -3 53% 4 76.4 0.0
01 08:55 NE 13 16.09 Mostly Cloudy BKN080 6 -4 49% 4 76.4 0.0
01 08:35 NE 6 16.09 Mostly Cloudy BKN080 5 -2 61% 76.38 0.0
01 08:15 NE 7 16.09 Overcast OVC080 4 -2 65% 2 76.4 0.0
01 07:55 NE 7 16.09 Mostly Cloudy BKN080 4 -2 65% 2 76.38 0.0
01 07:35 Calm 16.09 Mostly Cloudy BKN080 3 -2 70% 76.35 0.0
01 07:15 NE 9 16.09 Mostly Cloudy BKN080 3 -2 70% 1 76.35 0.0
01 06:55 NE 7 16.09 Fair CLR 2 -2 75% 0 76.33 0.0
01 06:35 NE 6 16.09 Fair CLR 2 -2 75% 76.3 0.0
01 06:15 NE 7 16.09 Fair CLR 2 -2 75% 0 76.3 0.0
01 05:55 N 7 16.09 Fair CLR 2 -1 81% 0 76.28 0.0
01 05:35 N 9 16.09 Fair CLR 3 -1 75% 1 76.28 0.0
01 05:15 N 9 16.09 Partly Cloudy SCT080 3 1 87% 1 76.28 0.0
01 04:55 Calm 16.09 Mostly Cloudy BKN055 4 2 87% 76.28 0.0
01 04:35 Calm 16.09 Partly Cloudy SCT055 3 2 93% 76.25 0.0
01 04:15 Calm 16.09 Partly Cloudy SCT060 SCT095 5 2 81% 76.28 0.0
01 03:55 Calm 16.09 Overcast SCT060 OVC095 5 3 87% 76.25 0.0
01 03:35 Calm 16.09 Overcast SCT060 SCT080 OVC095 6 3 81% 76.25 0.0
01 03:15 NW 6 16.09 Overcast OVC085 6 3 81% 76.25 0.0
01 02:55 W 6 16.09 Overcast SCT060 SCT065 OVC085 6 3 81% 76.25 0.0
01 02:35 Calm 16.09 Overcast SCT060 BKN065 OVC085 6 3 81% 76.25 0.0
01 02:15 W 6 16.09 Overcast BKN055 OVC070 6 3 81% 76.25 0.0
01 01:55 Calm 16.09 Overcast SCT055 OVC070 6 2 76% 76.25 0.0
01 01:35 W 6 16.09 Overcast OVC070 6 2 76% 76.28 0.0
01 01:15 W 7 16.09 Overcast BKN070 OVC085 6 2 76% 5 76.28 0.0
01 00:55 W 11 16.09 Overcast SCT060 OVC085 7 2 71% 5 76.28 0.0
01 00:35 W 9 16.09 Overcast BKN060 OVC085 7 2 71% 5 76.25 0.0
01 00:15 W 9 16.09 Overcast BKN060 OVC075 7 2 71% 5 76.25 0.0
30 23:55 Calm 16.09 Overcast OVC060 7 2 71% 76.25 0.0
30 23:35 Calm 16.09 Overcast BKN060 OVC110 7 2 71% 76.25 0.0
30 23:15 W 7 16.09 Overcast SCT060 OVC110 7 2 71% 6 76.25 0.0
30 22:55 W 6 16.09 Overcast SCT060 OVC075 7 2 71% 76.25 0.0
30 22:35 Calm 16.09 Mostly Cloudy BKN075 6 1 71% 76.28 0.0
30 22:15 W 7 16.09 Partly Cloudy SCT070 SCT085 7 1 66% 6 76.28 0.0
30 21:55 NW 6 16.09 Partly Cloudy SCT085 7 0 61% 76.28 0.0
30 21:35 W 6 16.09 Overcast SCT060 OVC085 6 -1 61% 76.25 0.0
30 21:15 Calm 16.09 Overcast SCT060 BKN085 OVC100 6 0 66% 76.25 0.0
30 20:55 Calm 16.09 Overcast SCT065 OVC100 6 1 71% 76.25 0.0
30 20:35 Calm 16.09 Mostly Cloudy BKN095 7 -2 53% 76.23 0.0
30 20:15 Calm 16.09 Partly Cloudy SCT075 SCT085 SCT095 8 -3 46% 76.23 0.0
30 19:55 Calm 16.09 Mostly Cloudy SCT070 BKN085 8 -2 50% 76.23 0.0
30 19:35 N 6 16.09 Mostly Cloudy BKN085 9 -3 43% 76.23 0.0
30 19:15 N 6 16.09 Partly Cloudy SCT075 9 -3 43% 76.23 0.0
30 18:55 NW 7 16.09 Partly Cloudy SCT075 9 -4 40% 8 76.23 0.0
30 18:35 N 11 16.09 Fair CLR 10 -4 37% 9 76.23 0.0
30 18:15 N 22 G 28 16.09 Fair CLR 11 -4 35% 76.2 0.0
30 17:55 N 20 G 28 16.09 Partly Cloudy SCT060 11 -4 35% 76.23 0.0
30 17:35 N 24 G 31 16.09 Partly Cloudy SCT060 11 -4 35% 76.23 0.0
30 17:15 N 22 G 35 16.09 Partly Cloudy SCT070 11 -4 35% 76.23 0.0
30 16:55 NW 20 G 33 16.09 Partly Cloudy SCT060 10 -4 37% 8 76.23 0.0
30 16:35 NW 20 G 31 16.09 Partly Cloudy SCT060 11 -4 35% 76.23 0.0
30 16:15 N 20 G 33 16.09 Partly Cloudy SCT060 11 -5 32% 76.25 0.0
30 15:55 N 22 G 35 16.09 Partly Cloudy SCT060 11 -5 32% 76.25 0.0
30 15:35 N 19 G 33 16.09 Partly Cloudy SCT060 10 -4 37% 8 76.28 0.0
30 15:15 NW 15 G 31 16.09 Partly Cloudy SCT050 10 -4 37% 8 76.28 0.0
30 14:55 NW 26 G 37 16.09 Partly Cloudy SCT050 10 -4 37% 7 76.3 0.0
30 14:35 NW 15 G 26 16.09 Partly Cloudy SCT050 9 -4 40% 7 76.3 0.0
30 14:15 NW 17 G 30 16.09 Partly Cloudy SCT049 9 -3 43% 7 76.3 0.0
30 13:55 N 19 G 30 16.09 Partly Cloudy SCT049 9 -4 40% 7 76.33 0.0
30 13:35 N 15 G 33 16.09 Partly Cloudy SCT049 8 -3 46% 6 76.33 0.0
30 13:15 N 19 G 26 16.09 Partly Cloudy SCT047 9 -3 43% 7 76.33 0.0
30 12:55 N 13 G 30 16.09 Partly Cloudy SCT047 8 -3 46% 6 76.33 0.0
30 12:35 NW 15 16.09 Partly Cloudy SCT047 9 -3 43% 7 76.35 0.0
30 12:15 N 7 16.09 Partly Cloudy SCT045 8 -3 46% 7 76.35 0.0
30 11:55 NW 17 16.09 Partly Cloudy SCT043 8 -3 46% 6 76.35 0.0
30 11:35 N 15 16.09 Partly Cloudy SCT043 8 -3 46% 6 76.35 0.0
30 11:15 N 13 16.09 Partly Cloudy SCT041 8 -3 46% 6 76.35 0.0
30 10:55 N 9 16.09 Partly Cloudy SCT039 7 -3 49% 5 76.35 0.0
30 10:35 N 19 G 28 16.09 Partly Cloudy SCT039 7 -3 49% 4 76.35 0.0
30 10:15 N 19 16.09 Fair CLR 7 -2 53% 4 76.35 0.0
30 09:55 NW 15 16.09 Fair CLR 7 -2 53% 5 76.35 0.0
30 09:35 N 13 16.09 Fair CLR 6 -2 57% 4 76.38 0.0
30 09:15 NW 19 16.09 Fair CLR 6 -2 57% 3 76.38 0.0
30 08:55 N 13 16.09 Fair CLR 5 -2 61% 2 76.35 0.0
30 08:35 N 13 16.09 Fair CLR 4 -2 65% 1 76.35 0.0
30 08:15 N 17 16.09 Fair CLR 4 -2 65% 1 76.35 0.0
30 07:55 N 13 16.09 Fair CLR 4 -2 65% 1 76.35 0.0
30 07:35 N 13 16.09 Partly Cloudy SCT120 4 -2 65% 1 76.35 0.0
30 07:15 NW 13 16.09 Partly Cloudy SCT120 4 -2 65% 1 76.35 0.0
30 06:55 N 11 16.09 Partly Cloudy SCT120 3 -2 70% 0 76.35 0.0
30 06:35 NW 9 16.09 Partly Cloudy SCT080 3 -2 70% 1 76.33 0.0
30 06:15 NW 9 16.09 Overcast OVC080 4 -2 65% 2 76.33 0.0
30 05:55 NW 9 16.09 Overcast BKN080 OVC110 4 -1 70% 2 76.3 0.0
30 05:35 NW 7 16.09 Mostly Cloudy SCT080 BKN110 4 -1 70% 2 76.3 0.0
30 05:15 Calm 16.09 Overcast SCT065 OVC080 4 -1 70% 76.33 0.0
30 04:55 NW 6 16.09 Overcast OVC080 4 -1 70% 76.33 0.0
30 04:35 NW 7 16.09 Overcast SCT045 BKN080 OVC085 5 -1 66% 4 76.33 0.0
30 04:15 NW 7 16.09 Overcast SCT045 BKN080 OVC085 6 -1 61% 5 76.33 0.0
30 03:55 NW 9 16.09 Overcast SCT050 SCT060 OVC070 6 -1 61% 4 76.33 0.0
30 03:35 NW 7 16.09 Overcast OVC070 6 -1 61% 5 76.3 0.0
30 03:15 NW 9 16.09 Overcast SCT055 OVC070 6 -1 61% 4 76.3 0.0
30 02:55 NW 9 16.09 Overcast SCT065 OVC080 6 -1 61% 4 76.3 0.0
30 02:35 NW 9 16.09 Overcast SCT065 BKN080 OVC090 7 -1 57% 5 76.3 0.0
30 02:15 W 13 16.09 Overcast SCT080 OVC090 7 -1 57% 5 76.3 0.0
30 01:55 NW 6 16.09 Overcast OVC100 7 -1 57% 76.3 0.0
30 01:35 NW 6 16.09 Mostly Cloudy BKN100 6 -1 61% 76.3 0.0
30 01:15 NW 6 16.09 Fair CLR 6 -1 61% 76.33 0.0
30 00:55 Calm 16.09 Fair CLR 6 -1 61% 76.33 0.0
30 00:35 Calm 16.09 Partly Cloudy SCT065 SCT095 7 -1 57% 76.3 0.0
30 00:15 Calm 16.09 Overcast SCT065 OVC095 7 -1 57% 76.3 0.0
29 23:55 Calm 16.09 Mostly Cloudy SCT065 SCT070 BKN085 7 -1 57% 76.3 0.0
29 23:35 Calm 16.09 Mostly Cloudy SCT065 BKN085 7 -1 57% 76.3 0.0
29 23:15 Calm 16.09 Partly Cloudy SCT080 6 1 71% 76.3 0.0
29 22:55 Calm 16.09 Partly Cloudy SCT080 7 -1 57% 76.3 0.0
29 22:35 Calm 16.09 Mostly Cloudy BKN080 6 1 71% 76.3 0.0
29 22:15 N 6 16.09 Partly Cloudy SCT080 SCT090 6 2 76% 76.3 0.0
29 21:55 N 6 16.09 Partly Cloudy SCT075 SCT080 4 2 87% 76.3 0.0
29 21:35 Calm 16.09 Mostly Cloudy SCT075 BKN085 5 2 81% 76.3 0.0
29 21:15 Calm 16.09 Partly Cloudy SCT075 SCT080 6 2 76% 76.3 0.0
29 20:55 Calm 16.09 Fair CLR 7 0 61% 76.28 0.0
29 20:35 Calm 16.09 Partly Cloudy SCT075 8 -1 53% 76.25 0.0
29 20:15 Calm 16.09 Partly Cloudy SCT075 9 -1 50% 76.25 0.0
29 19:55 N 7 16.09 Partly Cloudy SCT090 10 -1 47% 9 76.25 0.0
29 19:35 NW 7 16.09 Overcast OVC090 11 -1 44% 76.25 0.0
29 19:15 NW 13 16.09 Mostly Cloudy BKN090 11 -2 41% 76.25 0.0
29 18:55 NW 11 16.09 Mostly Cloudy SCT080 BKN090 12 -2 38% 76.25 0.0
29 18:35 W 13 16.09 Overcast SCT080 OVC090 12 -2 38% 76.25 0.0
29 18:15 W 9 16.09 Mostly Cloudy BKN090 12 -2 38% 76.25 0.0
29 17:55 NW 7 16.09 Partly Cloudy SCT080 SCT090 12 -1 41% 76.25 0.0
29 17:35 W 13 16.09 Mostly Cloudy BKN080 11 -2 41% 76.28 0.0
29 17:15 W 11 16.09 Partly Cloudy SCT090 11 -2 41% 76.28 0.0
29 16:55 NW 13 16.09 Mostly Cloudy BKN065 12 -2 38% 76.28 0.0
29 16:35 N 13 16.09 Mostly Cloudy BKN065 BKN080 12 -3 35% 76.28 0.0
29 16:15 W 7 16.09 Partly Cloudy SCT065 13 -3 33% 76.28 0.0
29 15:55 NW 9 16.09 Mostly Cloudy BKN065 BKN080 12 -3 35% 76.3 0.0
29 15:35 W 11 16.09 Mostly Cloudy SCT065 BKN095 11 -3 38% 76.33 0.0
29 15:15 W 13 G 30 16.09 Partly Cloudy SCT085 SCT090 12 -3 35% 76.33 0.0
29 14:55 NW 11 16.09 Mostly Cloudy SCT085 BKN095 11 -3 38% 76.35 0.0
29 14:35 NW 15 16.09 Mostly Cloudy SCT070 BKN085 BKN090 12 -3 35% 76.35 0.0
29 14:15 W 13 16.09 Mostly Cloudy SCT070 BKN080 11 -3 38% 76.35 0.0
29 13:55 NW 15 16.09 Mostly Cloudy BKN070 11 -3 38% 76.35 0.0
29 13:35 NW 17 G 26 16.09 Mostly Cloudy BKN070 BKN075 11 -3 38% 76.38 0.0
Date Time (cdt) Wind (kph) Vis. (km) Weather Sky Cond. Air Dwpt Max. Min. Relative Humidity Wind Chill (°C) Heat Index (°C) altimeter (cm) sea level (mb) 1 hr 3 hr 6 hr
6 hour
Temperature (ºC) Pressure Precipitation (cm)